Atiramapattinam, India

3:03 AM IST on October 22, 2014 (GMT +0530)
Tiruchirappalli | Change Station
CLOSE
Current Station
Airport
Location: Triuchirapalli,
Elevation: 289 ft
Nearby Weather Stations

Elev 289 ft 10.77 °N, 78.71 °E | Updated 23 minutes ago

Scattered Clouds
Scattered Clouds
77 °F
Feels Like 77 °F
N
0
Wind Variable Wind from North

Today
High -- | Low -- °F
--% Chance of Precip.
Yesterday
High -- | Low -- °F
Precip. -- in
6:01 AM 5:52 PM
Waning Crescent, 4% visible
Pressure 29.89 in
Visibility 1.2 miles
Clouds Few 1600 ft
Scattered Clouds 10000 ft
Dew Point 75 °F
Humidity 94%
Rainfall 0.00 in
Snow Depth Not available.
UV 0 out of 12
Pollen Not available.
Air Quality Not available.
Flu Activity Not available.
METAR VOTR 212110Z 00000KT 2000 BR FEW016 SCT100 25/24 Q1012 NOSIG

More Conditions Fewer Conditions

Pressure 29.89 in
Visibility 1.2 miles
Clouds Few 1600 ft
Scattered Clouds 10000 ft
Dew Point 75 °F
Humidity 94%
Rainfall 0.00 in
Snow Depth Not available.
UV 0 out of 12
Pollen Not available.
Air Quality Not available.
Flu Activity Not available.
METAR VOTR 212110Z 00000KT 2000 BR FEW016 SCT100 25/24 Q1012 NOSIG

More Conditions Fewer Conditions

10-Day Weather Forecast

Almanac

Astronomy

Oct. 22, 2014 Rise Set
Actual Time 6:01 AM IST 5:52 PM IST
Civil Twilight 5:40 AM IST 6:13 PM IST
Nautical Twilight 5:15 AM IST 6:38 PM IST
Astronomical Twilight 4:50 AM IST 7:02 PM IST
Moon 4:34 AM IST (10/22) 4:49 PM IST (10/22)
Length of Visible Light 12h 33m
Length of Day
11h 50m
Tomorrow will be 0m 32s shorter.
Waning Crescent, 4% of the Moon is Illuminated
Oct 21
Waning Crescent
Oct 23
New
Oct 30
First Quarter
Nov 6
Full
Nov 14
Last Quarter

Yesterday's Extremes

Country Highs Country Lows

Community

WunderPhotos

Upload Photos

1,763,779 photos uploaded!

Nearby

Snow Depth

Not available.

Earthquake Activity

City Distance Mag. Time & Date
No recent earthquake activity has been reported nearby.
Minimum magnitude displayed is 2.5.

Coastal Water Temperatures

Place Temperature
No Stations Reporting

Nearby Weather Stations